| time (UTC) | temp F | wind direction | speed MPH | gust MPH | rain 1hr in | rain 24hr in | rain mn in | humidity % | barometer mb |
| 20260510191531 | 69 | 267 | 6.0 | 9.0 | 0.00 | 0.00 | 0.00 | 32 | 1023.3 |
| 20260510190541 | 69 | 83 | 4.0 | 7.0 | 0.00 | 0.00 | 0.00 | 34 | 1023.2 |
| 20260510185528 | 69 | 98 | 5.0 | 7.0 | 0.00 | 0.00 | 0.00 | 34 | 1023.1 |
| 20260510184533 | 68 | 197 | 4.0 | 6.0 | 0.00 | 0.00 | 0.00 | 34 | 1023.2 |
| 20260510183523 | 69 | 282 | 5.0 | 8.0 | 0.00 | 0.00 | 0.00 | 33 | 1023.2 |
| 20260510182549 | 69 | 214 | 5.0 | 8.0 | 0.00 | 0.00 | 0.00 | 31 | 1023.3 |
| 20260510181523 | 69 | 12 | 6.0 | 8.0 | 0.00 | 0.00 | 0.00 | 32 | 1023.4 |
| 20260510180524 | 70 | 237 | 5.0 | 8.0 | 0.00 | 0.00 | 0.00 | 31 | 1023.2 |
| 20260510175520 | 69 | 157 | 7.0 | 12.0 | 0.00 | 0.00 | 0.00 | 32 | 1023.2 |
| 20260510174519 | 67 | 129 | 6.0 | 8.0 | 0.00 | 0.00 | 0.00 | 33 | 1023.3 |
| 20260510173545 | 67 | 228 | 6.0 | 9.0 | 0.00 | 0.00 | 0.00 | 32 | 1023.3 |
| 20260510172525 | 64 | 340 | 5.0 | 7.0 | 0.00 | 0.00 | 0.00 | 35 | 1023.3 |
| 20260510171521 | 66 | 163 | 7.0 | 14.0 | 0.00 | 0.00 | 0.00 | 33 | 1023.2 |
| 20260510170523 | 66 | 138 | 8.0 | 11.0 | 0.00 | 0.00 | 0.00 | 32 | 1023.1 |
| 20260510165553 | 66 | 342 | 7.0 | 11.0 | 0.00 | 0.00 | 0.00 | 34 | 1023.2 |
| 20260510164519 | 68 | 231 | 7.0 | 13.0 | 0.00 | 0.00 | 0.00 | 32 | 1023.1 |
| 20260510163529 | 66 | 74 | 8.0 | 11.0 | 0.00 | 0.00 | 0.00 | 34 | 1022.7 |
| 20260510162535 | 65 | 140 | 7.0 | 12.0 | 0.00 | 0.00 | 0.00 | 34 | 1022.7 |
| 20260510161524 | 67 | 251 | 7.0 | 11.0 | 0.00 | 0.00 | 0.00 | 33 | 1022.7 |
| 20260510160532 | 68 | 232 | 7.0 | 10.0 | 0.00 | 0.00 | 0.00 | 32 | 1022.7 |
| 20260510155542 | 66 | 249 | 7.0 | 13.0 | 0.00 | 0.00 | 0.00 | 35 | 1022.6 |
| 20260510154526 | 65 | 61 | 5.0 | 11.0 | 0.00 | 0.00 | 0.00 | 36 | 1022.6 |
| 20260510153539 | 65 | 156 | 4.0 | 7.0 | 0.00 | 0.00 | 0.00 | 38 | 1022.4 |
| 20260510152521 | 62 | 123 | 5.0 | 7.0 | 0.00 | 0.00 | 0.00 | 40 | 1022.4 |
| 20260510151527 | 62 | 163 | 6.0 | 9.0 | 0.00 | 0.00 | 0.00 | 40 | 1022.4 |
| 20260510150525 | 61 | 126 | 5.0 | 8.0 | 0.00 | 0.00 | 0.00 | 40 | 1022.7 |
| 20260510145523 | 62 | 254 | 5.0 | 8.0 | 0.00 | 0.00 | 0.00 | 39 | 1022.6 |
| 20260510144522 | 62 | 102 | 6.0 | 8.0 | 0.00 | 0.00 | 0.00 | 39 | 1022.9 |
| 20260510143530 | 63 | 290 | 5.0 | 9.0 | 0.00 | 0.00 | 0.00 | 39 | 1022.9 |
| 20260510142520 | 62 | 126 | 5.0 | 8.0 | 0.00 | 0.00 | 0.00 | 39 | 1022.9 |
| 20260510141530 | 62 | 199 | 5.0 | 8.0 | 0.00 | 0.00 | 0.00 | 41 | 1022.8 |
| 20260510140520 | 62 | 212 | 5.0 | 8.0 | 0.00 | 0.00 | 0.00 | 40 | 1022.6 |
| 20260510135526 | 62 | 111 | 6.0 | 9.0 | 0.00 | 0.00 | 0.00 | 40 | 1022.3 |
| 20260510134532 | 64 | 199 | 5.0 | 7.0 | 0.00 | 0.00 | 0.00 | 39 | 1022.2 |
| 20260510133542 | 63 | 41 | 5.0 | 7.0 | 0.00 | 0.00 | 0.00 | 41 | 1021.7 |
| 20260510132550 | 61 | 38 | 6.0 | 9.0 | 0.00 | 0.00 | 0.00 | 42 | 1021.5 |
| 20260510131519 | 62 | 285 | 7.0 | 11.0 | 0.00 | 0.00 | 0.00 | 42 | 1021.3 |
| 20260510130523 | 61 | 136 | 5.0 | 12.0 | 0.00 | 0.00 | 0.00 | 44 | 1021.2 |
| 20260510125609 | 60 | 286 | 6.0 | 8.0 | 0.00 | 0.00 | 0.00 | 44 | 1020.9 |
| 20260510124535 | 60 | 117 | 6.0 | 8.0 | 0.00 | 0.00 | 0.00 | 46 | 1020.6 |
| 20260510123545 | 59 | 93 | 6.0 | 8.0 | 0.00 | 0.00 | 0.00 | 46 | 1020.3 |
| 20260510122521 | 59 | 124 | 5.0 | 8.0 | 0.00 | 0.00 | 0.00 | 48 | 1020.3 |
| 20260510121520 | 58 | 72 | 5.0 | 7.0 | 0.00 | 0.00 | 0.00 | 51 | 1020.4 |
| 20260510120539 | 57 | 108 | 3.0 | 6.0 | 0.00 | 0.00 | 0.00 | 51 | 1020.3 |
| 20260510115547 | 57 | 322 | 5.0 | 7.0 | 0.00 | 0.00 | 0.00 | 51 | 1020.0 |
| 20260510114522 | 57 | 259 | 4.0 | 6.0 | 0.00 | 0.00 | 0.00 | 52 | 1020.1 |
| 20260510113525 | 57 | 71 | 3.0 | 5.0 | 0.00 | 0.00 | 0.00 | 53 | 1019.8 |
| 20260510112537 | 57 | 85 | 2.0 | 4.0 | 0.00 | 0.00 | 0.00 | 57 | 1019.7 |
| 20260510111523 | 57 | 331 | 1.0 | 3.0 | 0.00 | 0.00 | 0.00 | 57 | 1019.8 |
| 20260510110530 | 57 | 257 | 2.0 | 3.0 | 0.00 | 0.00 | 0.00 | 56 | 1019.4 |
| 20260510105522 | 57 | 75 | 1.0 | 3.0 | 0.00 | 0.00 | 0.00 | 57 | 1019.0 |
| 20260510104527 | 58 | 94 | 3.0 | 5.0 | 0.00 | 0.00 | 0.00 | 58 | 1019.0 |
| 20260510103531 | 58 | 12 | 2.0 | 6.0 | 0.00 | 0.00 | 0.00 | 59 | 1019.0 |
| 20260510102541 | 58 | 190 | 3.0 | 5.0 | 0.00 | 0.00 | 0.00 | 61 | 1018.7 |
| 20260510101526 | 58 | 254 | 3.0 | 5.0 | 0.00 | 0.00 | 0.00 | 61 | 1018.6 |
| 20260510100522 | 59 | 2 | 3.0 | 7.0 | 0.00 | 0.00 | 0.00 | 60 | 1018.3 |
| 20260510095522 | 59 | 141 | 4.0 | 5.0 | 0.00 | 0.00 | 0.00 | 61 | 1018.3 |
| 20260510094519 | 59 | 133 | 3.0 | 6.0 | 0.00 | 0.00 | 0.00 | 59 | 1018.1 |
| 20260510093527 | 60 | 200 | 3.0 | 5.0 | 0.00 | 0.00 | 0.00 | 60 | 1018.0 |
| 20260510092524 | 60 | 210 | 5.0 | 10.0 | 0.00 | 0.00 | 0.00 | 60 | 1017.8 |
| 20260510091525 | 60 | 289 | 3.0 | 5.0 | 0.00 | 0.00 | 0.00 | 64 | 1017.6 |
| 20260510090519 | 61 | 237 | 2.0 | 4.0 | 0.00 | 0.00 | 0.00 | 65 | 1017.4 |
| 20260510085525 | 61 | 338 | 2.0 | 3.0 | 0.00 | 0.00 | 0.00 | 63 | 1017.4 |
| 20260510084531 | 61 | 255 | 3.0 | 5.0 | 0.00 | 0.01 | 0.00 | 63 | 1017.4 |
| 20260510083600 | 61 | 291 | 3.0 | 4.0 | 0.00 | 0.01 | 0.00 | 63 | 1017.3 |
| 20260510082528 | 61 | 285 | 2.0 | 3.0 | 0.00 | 0.01 | 0.00 | 62 | 1016.9 |
| 20260510081533 | 61 | 267 | 2.0 | 3.0 | 0.00 | 0.01 | 0.00 | 62 | 1016.9 |
| 20260510080525 | 62 | 109 | 1.0 | 3.0 | 0.00 | 0.01 | 0.00 | 60 | 1016.6 |
| 20260510075548 | 62 | 300 | 2.0 | 4.0 | 0.00 | 0.01 | 0.00 | 60 | 1016.4 |
| 20260510074523 | 63 | 163 | 2.0 | 4.0 | 0.00 | 0.01 | 0.00 | 59 | 1016.1 |
| 20260510073524 | 63 | 44 | 3.0 | 5.0 | 0.00 | 0.01 | 0.00 | 58 | 1016.2 |
| 20260510072520 | 63 | 110 | 3.0 | 4.0 | 0.00 | 0.01 | 0.00 | 58 | 1016.2 |
| 20260510071620 | 63 | 92 | 2.0 | 4.0 | 0.00 | 0.01 | 0.00 | 58 | 1016.3 |
| 20260510070525 | 64 | 316 | 1.0 | 3.0 | 0.00 | 0.01 | 0.00 | 58 | 1016.4 |
| 20260510065525 | 64 | 273 | 2.0 | 3.0 | 0.00 | 0.01 | 0.00 | 56 | 1016.1 |
| 20260510064521 | 64 | 111 | 3.0 | 6.0 | 0.00 | 0.01 | 0.00 | 56 | 1015.8 |
| 20260510063523 | 65 | 84 | 3.0 | 6.0 | 0.00 | 0.01 | 0.00 | 55 | 1015.8 |
| 20260510062533 | 65 | 305 | 2.0 | 3.0 | 0.00 | 0.01 | 0.00 | 54 | 1016.2 |
| 20260510061523 | 65 | 334 | 1.0 | 2.0 | 0.00 | 0.01 | 0.00 | 54 | 1016.3 |
| 20260510060528 | 65 | 347 | 2.0 | 3.0 | 0.00 | 0.01 | 0.00 | 53 | 1016.0 |
| 20260510055556 | 65 | 230 | 2.0 | 3.0 | 0.00 | 0.01 | 0.00 | 56 | 1015.8 |
| 20260510054526 | 64 | 254 | 3.0 | 4.0 | 0.00 | 0.01 | 0.00 | 60 | 1015.5 |
| 20260510053530 | 64 | 69 | 1.0 | 3.0 | 0.00 | 0.01 | 0.00 | 63 | 1015.5 |
| 20260510052520 | 65 | 88 | 1.0 | 4.0 | 0.00 | 0.01 | 0.00 | 58 | 1015.5 |
| 20260510051525 | 64 | 270 | 2.0 | 4.0 | 0.00 | 0.01 | 0.00 | 60 | 1015.4 |
| 20260510050520 | 65 | 304 | 1.0 | 2.0 | 0.00 | 0.01 | 0.00 | 61 | 1015.0 |
| 20260510045521 | 65 | 90 | 2.0 | 3.0 | 0.00 | 0.01 | 0.01 | 61 | 1015.1 |
| 20260510044527 | 65 | 270 | 0.0 | 1.0 | 0.00 | 0.01 | 0.01 | 61 | 1015.1 |
| 20260510043526 | 65 | 21 | 1.0 | 2.0 | 0.00 | 0.01 | 0.01 | 58 | 1015.1 |
| 20260510042523 | 65 | 279 | 1.0 | 2.0 | 0.00 | 0.01 | 0.01 | 58 | 1015.0 |
| 20260510041524 | 65 | 270 | 0.0 | 2.0 | 0.00 | 0.01 | 0.01 | 57 | 1015.0 |
| 20260510040532 | 65 | 0.0 | 0.0 | 0.00 | 0.01 | 0.01 | 57 | 1014.9 | |
| 20260510035521 | 65 | 0.0 | 1.0 | 0.00 | 0.01 | 0.01 | 54 | 1014.6 | |
| 20260510034530 | 65 | 278 | 1.0 | 2.0 | 0.00 | 0.01 | 0.01 | 56 | 1014.3 |
| 20260510033520 | 64 | 270 | 2.0 | 3.0 | 0.00 | 0.01 | 0.01 | 58 | 1014.1 |
| 20260510032526 | 65 | 0.0 | 0.0 | 0.00 | 0.01 | 0.01 | 54 | 1013.9 | |
| 20260510031534 | 66 | 0.0 | 0.0 | 0.00 | 0.01 | 0.01 | 53 | 1013.8 | |
| 20260510030524 | 67 | 126 | 0.0 | 2.0 | 0.00 | 0.01 | 0.01 | 54 | 1013.7 |
| 20260510025527 | 68 | 0.0 | 0.0 | 0.00 | 0.01 | 0.01 | 51 | 1013.5 | |
| 20260510024521 | 69 | 0.0 | 0.0 | 0.00 | 0.01 | 0.01 | 47 | 1013.2 | |
| 20260510023523 | 70 | 225 | 0.0 | 1.0 | 0.00 | 0.01 | 0.01 | 45 | 1013.1 |
| 20260510022519 | 71 | 289 | 2.0 | 3.0 | 0.00 | 0.01 | 0.01 | 44 | 1012.8 |
| 20260510021527 | 71 | 356 | 1.0 | 4.0 | 0.00 | 0.01 | 0.01 | 43 | 1012.6 |
| 20260510020524 | 72 | 260 | 2.0 | 4.0 | 0.00 | 0.01 | 0.01 | 42 | 1012.3 |
| 20260510015524 | 73 | 299 | 3.0 | 5.0 | 0.00 | 0.01 | 0.01 | 42 | 1012.2 |
| 20260510014520 | 74 | 258 | 3.0 | 6.0 | 0.00 | 0.01 | 0.01 | 42 | 1012.1 |
| 20260510013602 | 74 | 284 | 5.0 | 9.0 | 0.00 | 0.01 | 0.01 | 42 | 1011.7 |
| 20260510012532 | 73 | 246 | 6.0 | 8.0 | 0.00 | 0.01 | 0.01 | 50 | 1011.4 |
| 20260510011522 | 75 | 0.0 | 0.0 | 0.00 | 0.01 | 0.01 | 48 | 1010.7 | |
| 20260510010528 | 76 | 0.0 | 0.0 | 0.00 | 0.01 | 0.01 | 47 | 1010.5 | |
| 20260510005535 | 77 | 0.0 | 0.0 | 0.00 | 0.01 | 0.01 | 45 | 1010.4 | |
| 20260510004545 | 78 | 0.0 | 0.0 | 0.00 | 0.01 | 0.01 | 44 | 1010.3 | |
| 20260510003532 | 79 | 0.0 | 0.0 | 0.00 | 0.01 | 0.01 | 41 | 1010.3 | |
| 20260510002519 | 79 | 0.0 | 0.0 | 0.00 | 0.01 | 0.01 | 40 | 1010.2 | |
| 20260510001524 | 80 | 0.0 | 0.0 | 0.00 | 0.19 | 0.01 | 41 | 1010.2 | |
| 20260510000520 | 81 | 0.0 | 0.0 | 0.00 | 0.19 | 0.01 | 43 | 1010.1 | |
| 20260509235520 | 82 | 0.0 | 0.0 | 0.00 | 0.19 | 0.01 | 41 | 1010.2 | |
| 20260509234526 | 82 | 0.0 | 0.0 | 0.00 | 0.19 | 0.01 | 39 | 1010.2 | |
| 20260509233525 | 83 | 295 | 0.0 | 2.0 | 0.00 | 0.19 | 0.01 | 38 | 1010.1 |
| 20260509232522 | 83 | 135 | 0.0 | 2.0 | 0.00 | 0.19 | 0.01 | 38 | 1010.2 |
| 20260509231523 | 83 | 162 | 1.0 | 3.0 | 0.00 | 0.20 | 0.01 | 36 | 1010.1 |
| 20260509230531 | 84 | 94 | 1.0 | 2.0 | 0.00 | 0.28 | 0.01 | 36 | 1010.1 |
| 20260509225520 | 85 | 234 | 3.0 | 5.0 | 0.00 | 0.43 | 0.01 | 33 | 1010.1 |
| 20260509224530 | 85 | 87 | 2.0 | 2.0 | 0.00 | 0.43 | 0.01 | 34 | 1010.0 |
| 20260509223519 | 86 | 305 | 1.0 | 2.0 | 0.00 | 0.43 | 0.01 | 34 | 1010.0 |
| 20260509222526 | 86 | 309 | 2.0 | 4.0 | 0.00 | 0.43 | 0.01 | 33 | 1010.0 |
| 20260509221531 | 86 | 340 | 2.0 | 3.0 | 0.00 | 0.43 | 0.01 | 33 | 1010.0 |
| 20260509220540 | 86 | 194 | 3.0 | 5.0 | 0.00 | 0.43 | 0.01 | 32 | 1010.0 |
| 20260509215527 | 86 | 264 | 3.0 | 4.0 | 0.00 | 0.43 | 0.01 | 34 | 1010.0 |
| 20260509214521 | 85 | 109 | 2.0 | 3.0 | 0.00 | 0.43 | 0.01 | 35 | 1010.0 |
| 20260509213522 | 85 | 183 | 1.0 | 3.0 | 0.00 | 0.43 | 0.01 | 35 | 1010.1 |
| 20260509212528 | 84 | 93 | 3.0 | 4.0 | 0.00 | 0.43 | 0.01 | 34 | 1010.1 |
| 20260509211526 | 86 | 140 | 2.0 | 3.0 | 0.00 | 0.43 | 0.01 | 33 | 1010.1 |
| 20260509210524 | 88 | 42 | 3.0 | 5.0 | 0.00 | 0.43 | 0.01 | 33 | 1010.2 |
| 20260509205524 | 87 | 153 | 3.0 | 4.0 | 0.00 | 0.43 | 0.01 | 33 | 1010.4 |
| 20260509204540 | 87 | 77 | 3.0 | 5.0 | 0.00 | 0.43 | 0.01 | 33 | 1010.5 |
| 20260509203521 | 87 | 275 | 3.0 | 5.0 | 0.00 | 0.43 | 0.01 | 34 | 1010.7 |
| 20260509202531 | 86 | 75 | 3.0 | 5.0 | 0.00 | 0.43 | 0.01 | 35 | 1010.7 |
| 20260509201541 | 87 | 312 | 4.0 | 5.0 | 0.00 | 0.43 | 0.01 | 35 | 1010.9 |
| 20260509200527 | 87 | 283 | 2.0 | 4.0 | 0.00 | 0.43 | 0.01 | 35 | 1011.0 |
| 20260509195554 | 87 | 244 | 4.0 | 7.0 | 0.00 | 0.43 | 0.01 | 35 | 1011.0 |
| 20260509194543 | 86 | 90 | 3.0 | 5.0 | 0.00 | 0.43 | 0.01 | 36 | 1011.1 |
| 20260509193528 | 85 | 72 | 2.0 | 4.0 | 0.00 | 0.43 | 0.01 | 37 | 1011.1 |